sensor_id;sensor_type;location;lat;lon;timestamp;temperature;humidity
58993;DHT22;44782;0.000;0.000;2023-10-31T00:02:05;18.20;68.10
58993;DHT22;44782;0.000;0.000;2023-10-31T00:04:20;18.20;68.00
58993;DHT22;44782;0.000;0.000;2023-10-31T00:06:36;18.10;68.00
58993;DHT22;44782;0.000;0.000;2023-10-31T00:08:51;18.10;67.90
58993;DHT22;44782;0.000;0.000;2023-10-31T00:11:07;18.10;67.90
58993;DHT22;44782;0.000;0.000;2023-10-31T00:13:23;18.10;68.00
58993;DHT22;44782;0.000;0.000;2023-10-31T00:15:38;18.10;68.00
58993;DHT22;44782;0.000;0.000;2023-10-31T00:17:54;18.10;68.10
58993;DHT22;44782;0.000;0.000;2023-10-31T00:20:10;18.10;68.00
58993;DHT22;44782;0.000;0.000;2023-10-31T00:22:25;18.10;68.00
58993;DHT22;44782;0.000;0.000;2023-10-31T00:24:41;18.10;68.10
58993;DHT22;44782;0.000;0.000;2023-10-31T00:26:56;18.10;68.00
58993;DHT22;44782;0.000;0.000;2023-10-31T00:29:12;18.10;68.10
58993;DHT22;44782;0.000;0.000;2023-10-31T00:31:28;18.10;68.10
58993;DHT22;44782;0.000;0.000;2023-10-31T00:33:43;18.10;68.00
58993;DHT22;44782;0.000;0.000;2023-10-31T00:35:59;18.10;68.00
58993;DHT22;44782;0.000;0.000;2023-10-31T00:38:14;18.10;68.00
58993;DHT22;44782;0.000;0.000;2023-10-31T00:40:30;18.10;67.90
58993;DHT22;44782;0.000;0.000;2023-10-31T00:42:46;18.00;67.90
58993;DHT22;44782;0.000;0.000;2023-10-31T00:45:02;18.10;67.90
58993;DHT22;44782;0.000;0.000;2023-10-31T00:47:17;18.00;67.80
58993;DHT22;44782;0.000;0.000;2023-10-31T00:49:33;18.10;67.80
58993;DHT22;44782;0.000;0.000;2023-10-31T00:51:49;18.00;67.70
58993;DHT22;44782;0.000;0.000;2023-10-31T00:54:04;18.00;67.60
58993;DHT22;44782;0.000;0.000;2023-10-31T00:56:20;18.00;67.60
58993;DHT22;44782;0.000;0.000;2023-10-31T00:58:36;18.00;67.60
58993;DHT22;44782;0.000;0.000;2023-10-31T01:00:52;18.00;67.60
58993;DHT22;44782;0.000;0.000;2023-10-31T01:03:07;18.00;67.60
58993;DHT22;44782;0.000;0.000;2023-10-31T01:05:23;18.00;67.50
58993;DHT22;44782;0.000;0.000;2023-10-31T01:07:38;18.00;67.60
58993;DHT22;44782;0.000;0.000;2023-10-31T01:09:54;18.00;67.50
58993;DHT22;44782;0.000;0.000;2023-10-31T01:12:09;18.00;67.50
58993;DHT22;44782;0.000;0.000;2023-10-31T01:14:26;18.00;67.50
58993;DHT22;44782;0.000;0.000;2023-10-31T01:16:42;17.90;67.30
58993;DHT22;44782;0.000;0.000;2023-10-31T01:18:57;18.00;67.40
58993;DHT22;44782;0.000;0.000;2023-10-31T01:21:13;17.90;67.30
58993;DHT22;44782;0.000;0.000;2023-10-31T01:23:29;17.90;67.30
58993;DHT22;44782;0.000;0.000;2023-10-31T01:25:45;17.90;67.20
58993;DHT22;44782;0.000;0.000;2023-10-31T01:28:01;18.00;67.30
58993;DHT22;44782;0.000;0.000;2023-10-31T01:30:16;17.90;67.20
58993;DHT22;44782;0.000;0.000;2023-10-31T01:32:32;17.90;67.20
58993;DHT22;44782;0.000;0.000;2023-10-31T01:34:47;18.00;67.20
58993;DHT22;44782;0.000;0.000;2023-10-31T01:37:03;17.90;67.10
58993;DHT22;44782;0.000;0.000;2023-10-31T01:39:19;17.90;67.30
58993;DHT22;44782;0.000;0.000;2023-10-31T01:41:35;17.90;67.00
58993;DHT22;44782;0.000;0.000;2023-10-31T01:43:50;17.90;67.00
58993;DHT22;44782;0.000;0.000;2023-10-31T01:46:07;17.90;67.00
58993;DHT22;44782;0.000;0.000;2023-10-31T01:48:24;17.90;66.90
58993;DHT22;44782;0.000;0.000;2023-10-31T01:50:40;17.90;66.90
58993;DHT22;44782;0.000;0.000;2023-10-31T01:52:56;17.90;67.00
58993;DHT22;44782;0.000;0.000;2023-10-31T01:55:11;17.90;66.90
58993;DHT22;44782;0.000;0.000;2023-10-31T01:57:27;17.80;66.80
58993;DHT22;44782;0.000;0.000;2023-10-31T01:59:43;17.80;66.80
58993;DHT22;44782;0.000;0.000;2023-10-31T02:01:59;17.90;66.80
58993;DHT22;44782;0.000;0.000;2023-10-31T02:04:16;17.80;66.80
58993;DHT22;44782;0.000;0.000;2023-10-31T02:06:31;17.90;66.80
58993;DHT22;44782;0.000;0.000;2023-10-31T02:08:48;17.80;66.70
58993;DHT22;44782;0.000;0.000;2023-10-31T02:11:03;17.80;66.70
58993;DHT22;44782;0.000;0.000;2023-10-31T02:13:21;17.80;66.70
58993;DHT22;44782;0.000;0.000;2023-10-31T02:15:36;17.80;66.70
58993;DHT22;44782;0.000;0.000;2023-10-31T02:17:52;17.80;66.70
58993;DHT22;44782;0.000;0.000;2023-10-31T02:20:08;17.80;66.70
58993;DHT22;44782;0.000;0.000;2023-10-31T02:22:24;17.80;66.70
58993;DHT22;44782;0.000;0.000;2023-10-31T02:24:39;17.80;66.60
58993;DHT22;44782;0.000;0.000;2023-10-31T02:26:55;17.80;66.60
58993;DHT22;44782;0.000;0.000;2023-10-31T02:29:12;17.80;66.60
58993;DHT22;44782;0.000;0.000;2023-10-31T02:31:28;17.80;66.60
58993;DHT22;44782;0.000;0.000;2023-10-31T02:33:44;17.70;66.50
58993;DHT22;44782;0.000;0.000;2023-10-31T02:35:59;17.80;66.60
58993;DHT22;44782;0.000;0.000;2023-10-31T02:38:15;17.70;66.50
58993;DHT22;44782;0.000;0.000;2023-10-31T02:40:31;17.80;66.60
58993;DHT22;44782;0.000;0.000;2023-10-31T02:42:46;17.80;66.70
58993;DHT22;44782;0.000;0.000;2023-10-31T02:45:02;17.70;66.50
58993;DHT22;44782;0.000;0.000;2023-10-31T02:47:18;17.70;66.50
58993;DHT22;44782;0.000;0.000;2023-10-31T02:49:34;17.70;66.50
58993;DHT22;44782;0.000;0.000;2023-10-31T02:51:50;17.70;66.50
58993;DHT22;44782;0.000;0.000;2023-10-31T02:54:06;17.70;66.50
58993;DHT22;44782;0.000;0.000;2023-10-31T02:56:21;17.70;66.40
58993;DHT22;44782;0.000;0.000;2023-10-31T02:58:37;17.70;66.40
58993;DHT22;44782;0.000;0.000;2023-10-31T03:00:53;17.70;66.40
58993;DHT22;44782;0.000;0.000;2023-10-31T03:03:08;17.70;66.40
58993;DHT22;44782;0.000;0.000;2023-10-31T03:05:24;17.70;66.40
58993;DHT22;44782;0.000;0.000;2023-10-31T03:09:59;17.70;66.40
58993;DHT22;44782;0.000;0.000;2023-10-31T03:12:14;17.70;66.30
58993;DHT22;44782;0.000;0.000;2023-10-31T03:14:30;17.70;66.40
58993;DHT22;44782;0.000;0.000;2023-10-31T03:16:46;17.70;66.30
58993;DHT22;44782;0.000;0.000;2023-10-31T03:19:02;17.70;66.30
58993;DHT22;44782;0.000;0.000;2023-10-31T03:21:17;17.70;66.30
58993;DHT22;44782;0.000;0.000;2023-10-31T03:23:33;17.60;66.20
58993;DHT22;44782;0.000;0.000;2023-10-31T03:25:49;17.60;66.20
58993;DHT22;44782;0.000;0.000;2023-10-31T03:28:20;17.70;66.30
58993;DHT22;44782;0.000;0.000;2023-10-31T03:30:38;17.60;66.20
58993;DHT22;44782;0.000;0.000;2023-10-31T03:32:54;17.60;66.20
58993;DHT22;44782;0.000;0.000;2023-10-31T03:35:09;17.60;66.20
58993;DHT22;44782;0.000;0.000;2023-10-31T03:37:25;17.60;66.20
58993;DHT22;44782;0.000;0.000;2023-10-31T03:39:41;17.70;66.30
58993;DHT22;44782;0.000;0.000;2023-10-31T03:41:56;17.60;66.20
58993;DHT22;44782;0.000;0.000;2023-10-31T03:44:12;17.60;66.10
58993;DHT22;44782;0.000;0.000;2023-10-31T03:46:28;17.60;66.10
58993;DHT22;44782;0.000;0.000;2023-10-31T03:48:43;17.60;66.20
58993;DHT22;44782;0.000;0.000;2023-10-31T03:50:59;17.60;66.10
58993;DHT22;44782;0.000;0.000;2023-10-31T03:53:14;17.60;66.10
58993;DHT22;44782;0.000;0.000;2023-10-31T03:55:30;17.60;66.10
58993;DHT22;44782;0.000;0.000;2023-10-31T03:57:46;17.60;66.00
58993;DHT22;44782;0.000;0.000;2023-10-31T04:00:02;17.60;66.10
58993;DHT22;44782;0.000;0.000;2023-10-31T04:02:20;17.60;66.10
58993;DHT22;44782;0.000;0.000;2023-10-31T04:04:35;17.60;66.00
58993;DHT22;44782;0.000;0.000;2023-10-31T04:06:51;17.50;66.00
58993;DHT22;44782;0.000;0.000;2023-10-31T04:09:06;17.50;66.00
58993;DHT22;44782;0.000;0.000;2023-10-31T04:11:22;17.60;66.00
58993;DHT22;44782;0.000;0.000;2023-10-31T04:13:38;17.50;66.00
58993;DHT22;44782;0.000;0.000;2023-10-31T04:15:53;17.50;66.00
58993;DHT22;44782;0.000;0.000;2023-10-31T04:18:09;17.50;66.00
58993;DHT22;44782;0.000;0.000;2023-10-31T04:20:24;17.50;65.90
58993;DHT22;44782;0.000;0.000;2023-10-31T04:22:40;17.50;65.90
58993;DHT22;44782;0.000;0.000;2023-10-31T04:24:56;17.50;66.00
58993;DHT22;44782;0.000;0.000;2023-10-31T04:27:11;17.50;65.90
58993;DHT22;44782;0.000;0.000;2023-10-31T04:29:27;17.50;66.00
58993;DHT22;44782;0.000;0.000;2023-10-31T04:31:43;17.50;66.00
58993;DHT22;44782;0.000;0.000;2023-10-31T04:33:58;17.50;66.00
58993;DHT22;44782;0.000;0.000;2023-10-31T04:36:14;17.50;66.00
58993;DHT22;44782;0.000;0.000;2023-10-31T04:38:29;17.50;66.80
58993;DHT22;44782;0.000;0.000;2023-10-31T04:40:45;17.50;66.00
58993;DHT22;44782;0.000;0.000;2023-10-31T04:43:01;17.50;65.90
58993;DHT22;44782;0.000;0.000;2023-10-31T04:45:17;17.50;65.90
58993;DHT22;44782;0.000;0.000;2023-10-31T04:47:32;17.40;65.90
58993;DHT22;44782;0.000;0.000;2023-10-31T04:49:48;17.40;65.90
58993;DHT22;44782;0.000;0.000;2023-10-31T04:52:04;17.40;65.90
58993;DHT22;44782;0.000;0.000;2023-10-31T04:54:20;17.50;65.90
58993;DHT22;44782;0.000;0.000;2023-10-31T04:56:36;17.50;65.90
58993;DHT22;44782;0.000;0.000;2023-10-31T04:58:52;17.50;65.90
58993;DHT22;44782;0.000;0.000;2023-10-31T05:01:09;17.50;65.90
58993;DHT22;44782;0.000;0.000;2023-10-31T05:03:25;17.50;65.90
58993;DHT22;44782;0.000;0.000;2023-10-31T05:05:40;17.50;66.00
58993;DHT22;44782;0.000;0.000;2023-10-31T05:07:56;17.40;65.90
58993;DHT22;44782;0.000;0.000;2023-10-31T05:10:12;17.40;66.00
58993;DHT22;44782;0.000;0.000;2023-10-31T05:12:28;17.50;66.00
58993;DHT22;44782;0.000;0.000;2023-10-31T05:14:43;17.50;66.00
58993;DHT22;44782;0.000;0.000;2023-10-31T05:16:59;17.40;66.00
58993;DHT22;44782;0.000;0.000;2023-10-31T05:19:14;17.40;66.00
58993;DHT22;44782;0.000;0.000;2023-10-31T05:21:31;17.40;66.00
58993;DHT22;44782;0.000;0.000;2023-10-31T05:23:46;17.40;66.00
58993;DHT22;44782;0.000;0.000;2023-10-31T05:26:05;17.40;66.00
58993;DHT22;44782;0.000;0.000;2023-10-31T05:28:21;17.40;66.00
58993;DHT22;44782;0.000;0.000;2023-10-31T05:30:37;17.40;66.10
58993;DHT22;44782;0.000;0.000;2023-10-31T05:32:52;17.40;66.10
58993;DHT22;44782;0.000;0.000;2023-10-31T05:35:08;17.40;66.20
58993;DHT22;44782;0.000;0.000;2023-10-31T05:37:24;17.40;66.20
58993;DHT22;44782;0.000;0.000;2023-10-31T05:39:40;17.40;66.20
58993;DHT22;44782;0.000;0.000;2023-10-31T05:41:55;17.40;66.20
58993;DHT22;44782;0.000;0.000;2023-10-31T05:44:11;17.40;66.20
58993;DHT22;44782;0.000;0.000;2023-10-31T05:46:26;17.40;66.20
58993;DHT22;44782;0.000;0.000;2023-10-31T05:48:46;17.40;66.20
58993;DHT22;44782;0.000;0.000;2023-10-31T05:51:02;17.40;66.20
58993;DHT22;44782;0.000;0.000;2023-10-31T05:53:17;17.40;66.30
58993;DHT22;44782;0.000;0.000;2023-10-31T05:55:33;17.40;66.20
58993;DHT22;44782;0.000;0.000;2023-10-31T05:57:50;17.40;66.30
58993;DHT22;44782;0.000;0.000;2023-10-31T06:00:06;17.40;66.30
58993;DHT22;44782;0.000;0.000;2023-10-31T06:02:23;17.40;66.30
58993;DHT22;44782;0.000;0.000;2023-10-31T06:04:38;17.40;66.30
58993;DHT22;44782;0.000;0.000;2023-10-31T06:06:54;17.40;66.30
58993;DHT22;44782;0.000;0.000;2023-10-31T06:09:09;17.30;66.30
58993;DHT22;44782;0.000;0.000;2023-10-31T06:11:26;17.30;66.90
58993;DHT22;44782;0.000;0.000;2023-10-31T06:13:41;17.40;66.30
58993;DHT22;44782;0.000;0.000;2023-10-31T06:15:57;17.30;66.20
58993;DHT22;44782;0.000;0.000;2023-10-31T06:18:13;17.40;66.30
58993;DHT22;44782;0.000;0.000;2023-10-31T06:20:29;17.40;66.20
58993;DHT22;44782;0.000;0.000;2023-10-31T06:22:44;17.30;66.20
58993;DHT22;44782;0.000;0.000;2023-10-31T06:25:00;17.40;66.30
58993;DHT22;44782;0.000;0.000;2023-10-31T06:27:16;17.30;66.20
58993;DHT22;44782;0.000;0.000;2023-10-31T06:29:32;17.30;66.20
58993;DHT22;44782;0.000;0.000;2023-10-31T06:31:48;17.30;66.20
58993;DHT22;44782;0.000;0.000;2023-10-31T06:34:03;17.30;66.20
58993;DHT22;44782;0.000;0.000;2023-10-31T06:36:19;17.30;66.40
58993;DHT22;44782;0.000;0.000;2023-10-31T06:38:34;17.30;66.40
58993;DHT22;44782;0.000;0.000;2023-10-31T06:40:50;17.30;66.40
58993;DHT22;44782;0.000;0.000;2023-10-31T06:43:06;17.30;66.40
58993;DHT22;44782;0.000;0.000;2023-10-31T06:45:21;17.30;66.70
58993;DHT22;44782;0.000;0.000;2023-10-31T06:47:37;17.30;66.70
58993;DHT22;44782;0.000;0.000;2023-10-31T06:49:53;17.30;66.70
58993;DHT22;44782;0.000;0.000;2023-10-31T06:52:08;17.30;66.70
58993;DHT22;44782;0.000;0.000;2023-10-31T06:54:24;17.30;66.70
58993;DHT22;44782;0.000;0.000;2023-10-31T06:56:39;17.30;66.80
58993;DHT22;44782;0.000;0.000;2023-10-31T06:58:55;17.30;66.90
58993;DHT22;44782;0.000;0.000;2023-10-31T07:01:11;17.30;66.90
58993;DHT22;44782;0.000;0.000;2023-10-31T07:03:27;17.30;67.00
58993;DHT22;44782;0.000;0.000;2023-10-31T07:05:43;17.30;67.10
58993;DHT22;44782;0.000;0.000;2023-10-31T07:07:59;17.30;67.10
58993;DHT22;44782;0.000;0.000;2023-10-31T07:10:14;17.30;67.20
58993;DHT22;44782;0.000;0.000;2023-10-31T07:12:30;17.30;67.20
58993;DHT22;44782;0.000;0.000;2023-10-31T07:14:46;17.30;67.20
58993;DHT22;44782;0.000;0.000;2023-10-31T07:17:01;17.30;67.30
58993;DHT22;44782;0.000;0.000;2023-10-31T07:19:17;17.30;67.30
58993;DHT22;44782;0.000;0.000;2023-10-31T07:21:32;17.30;67.30
58993;DHT22;44782;0.000;0.000;2023-10-31T07:23:48;17.30;67.30
58993;DHT22;44782;0.000;0.000;2023-10-31T07:26:04;17.30;67.30
58993;DHT22;44782;0.000;0.000;2023-10-31T07:28:20;17.30;67.40
58993;DHT22;44782;0.000;0.000;2023-10-31T07:30:35;17.40;67.40
58993;DHT22;44782;0.000;0.000;2023-10-31T07:32:51;17.30;67.40
58993;DHT22;44782;0.000;0.000;2023-10-31T07:35:07;17.30;67.30
58993;DHT22;44782;0.000;0.000;2023-10-31T07:37:23;17.30;67.30
58993;DHT22;44782;0.000;0.000;2023-10-31T07:39:38;17.30;67.30
58993;DHT22;44782;0.000;0.000;2023-10-31T07:41:54;17.20;67.20
58993;DHT22;44782;0.000;0.000;2023-10-31T07:44:09;17.30;67.30
58993;DHT22;44782;0.000;0.000;2023-10-31T07:46:25;17.30;67.30
58993;DHT22;44782;0.000;0.000;2023-10-31T07:48:41;17.20;67.20
58993;DHT22;44782;0.000;0.000;2023-10-31T07:50:56;17.20;67.20
58993;DHT22;44782;0.000;0.000;2023-10-31T07:53:12;17.20;67.20
58993;DHT22;44782;0.000;0.000;2023-10-31T07:55:27;17.20;67.20
58993;DHT22;44782;0.000;0.000;2023-10-31T07:57:43;17.20;67.20
58993;DHT22;44782;0.000;0.000;2023-10-31T07:59:59;17.20;67.20
58993;DHT22;44782;0.000;0.000;2023-10-31T08:02:15;17.20;67.20
58993;DHT22;44782;0.000;0.000;2023-10-31T08:04:31;17.20;67.10
58993;DHT22;44782;0.000;0.000;2023-10-31T08:06:47;17.20;67.10
58993;DHT22;44782;0.000;0.000;2023-10-31T08:09:02;17.20;67.00
58993;DHT22;44782;0.000;0.000;2023-10-31T08:11:18;17.20;67.00
58993;DHT22;44782;0.000;0.000;2023-10-31T08:13:34;17.20;67.00
58993;DHT22;44782;0.000;0.000;2023-10-31T08:15:50;17.20;67.00
58993;DHT22;44782;0.000;0.000;2023-10-31T08:18:05;17.20;67.00
58993;DHT22;44782;0.000;0.000;2023-10-31T08:20:21;17.20;67.00
58993;DHT22;44782;0.000;0.000;2023-10-31T08:22:37;17.20;67.00
58993;DHT22;44782;0.000;0.000;2023-10-31T08:24:52;17.20;67.00
58993;DHT22;44782;0.000;0.000;2023-10-31T08:27:08;17.20;67.00
58993;DHT22;44782;0.000;0.000;2023-10-31T08:29:24;17.20;66.90
58993;DHT22;44782;0.000;0.000;2023-10-31T08:31:39;17.20;66.90
58993;DHT22;44782;0.000;0.000;2023-10-31T08:33:55;17.20;66.90
58993;DHT22;44782;0.000;0.000;2023-10-31T08:36:11;17.20;66.90
58993;DHT22;44782;0.000;0.000;2023-10-31T08:38:26;17.20;66.90
58993;DHT22;44782;0.000;0.000;2023-10-31T08:40:43;17.20;66.90
58993;DHT22;44782;0.000;0.000;2023-10-31T08:42:59;17.20;66.90
58993;DHT22;44782;0.000;0.000;2023-10-31T08:45:16;17.20;66.90
58993;DHT22;44782;0.000;0.000;2023-10-31T08:47:31;17.20;66.80
58993;DHT22;44782;0.000;0.000;2023-10-31T08:49:47;17.20;66.80
58993;DHT22;44782;0.000;0.000;2023-10-31T08:52:03;17.20;66.80
58993;DHT22;44782;0.000;0.000;2023-10-31T08:54:19;17.20;66.80
58993;DHT22;44782;0.000;0.000;2023-10-31T08:56:35;17.20;66.80
58993;DHT22;44782;0.000;0.000;2023-10-31T08:58:51;17.20;66.70
58993;DHT22;44782;0.000;0.000;2023-10-31T09:01:06;17.20;66.80
58993;DHT22;44782;0.000;0.000;2023-10-31T09:03:22;17.20;66.70
58993;DHT22;44782;0.000;0.000;2023-10-31T09:05:37;17.20;66.70
58993;DHT22;44782;0.000;0.000;2023-10-31T09:07:53;17.10;66.70
58993;DHT22;44782;0.000;0.000;2023-10-31T09:10:09;17.10;66.70
58993;DHT22;44782;0.000;0.000;2023-10-31T09:12:25;17.20;66.70
58993;DHT22;44782;0.000;0.000;2023-10-31T09:14:40;17.10;66.70
58993;DHT22;44782;0.000;0.000;2023-10-31T09:16:57;17.10;66.70
58993;DHT22;44782;0.000;0.000;2023-10-31T09:19:13;17.20;66.70
58993;DHT22;44782;0.000;0.000;2023-10-31T09:21:28;17.10;66.70
58993;DHT22;44782;0.000;0.000;2023-10-31T09:23:44;17.10;66.60
58993;DHT22;44782;0.000;0.000;2023-10-31T09:26:00;17.10;66.60
58993;DHT22;44782;0.000;0.000;2023-10-31T09:28:15;17.10;66.70
58993;DHT22;44782;0.000;0.000;2023-10-31T09:30:31;17.10;66.60
58993;DHT22;44782;0.000;0.000;2023-10-31T09:32:47;17.10;66.60
58993;DHT22;44782;0.000;0.000;2023-10-31T09:35:02;17.10;66.60
58993;DHT22;44782;0.000;0.000;2023-10-31T09:37:18;17.10;66.50
58993;DHT22;44782;0.000;0.000;2023-10-31T09:39:34;17.10;66.50
58993;DHT22;44782;0.000;0.000;2023-10-31T09:41:50;17.10;66.50
58993;DHT22;44782;0.000;0.000;2023-10-31T09:44:06;17.10;66.60
58993;DHT22;44782;0.000;0.000;2023-10-31T09:46:22;17.10;66.60
58993;DHT22;44782;0.000;0.000;2023-10-31T09:48:38;17.10;66.50
58993;DHT22;44782;0.000;0.000;2023-10-31T09:50:54;17.10;66.60
58993;DHT22;44782;0.000;0.000;2023-10-31T09:53:10;17.10;66.50
58993;DHT22;44782;0.000;0.000;2023-10-31T09:55:26;17.10;66.50
58993;DHT22;44782;0.000;0.000;2023-10-31T09:57:42;17.10;66.50
58993;DHT22;44782;0.000;0.000;2023-10-31T09:59:58;17.10;66.50
58993;DHT22;44782;0.000;0.000;2023-10-31T10:02:14;17.10;66.50
58993;DHT22;44782;0.000;0.000;2023-10-31T10:04:30;17.10;66.50
58993;DHT22;44782;0.000;0.000;2023-10-31T10:06:59;17.10;66.50
58993;DHT22;44782;0.000;0.000;2023-10-31T10:09:15;17.10;66.40
58993;DHT22;44782;0.000;0.000;2023-10-31T10:11:32;17.10;66.50
58993;DHT22;44782;0.000;0.000;2023-10-31T10:13:48;17.10;66.50
58993;DHT22;44782;0.000;0.000;2023-10-31T10:16:07;17.10;66.40
58993;DHT22;44782;0.000;0.000;2023-10-31T10:18:33;17.10;66.50
58993;DHT22;44782;0.000;0.000;2023-10-31T10:21:00;17.10;66.40
58993;DHT22;44782;0.000;0.000;2023-10-31T10:23:16;17.10;66.30
58993;DHT22;44782;0.000;0.000;2023-10-31T10:25:32;17.10;66.50
58993;DHT22;44782;0.000;0.000;2023-10-31T10:27:48;17.10;66.40
58993;DHT22;44782;0.000;0.000;2023-10-31T10:30:04;17.10;66.50
58993;DHT22;44782;0.000;0.000;2023-10-31T10:32:20;17.10;66.40
58993;DHT22;44782;0.000;0.000;2023-10-31T10:34:36;17.10;66.40
58993;DHT22;44782;0.000;0.000;2023-10-31T10:36:52;17.10;66.40
58993;DHT22;44782;0.000;0.000;2023-10-31T10:39:08;17.10;66.40
58993;DHT22;44782;0.000;0.000;2023-10-31T10:41:28;17.10;66.50
58993;DHT22;44782;0.000;0.000;2023-10-31T10:43:45;17.10;66.40
58993;DHT22;44782;0.000;0.000;2023-10-31T10:46:03;17.10;66.50
58993;DHT22;44782;0.000;0.000;2023-10-31T10:48:20;17.10;67.30
58993;DHT22;44782;0.000;0.000;2023-10-31T10:50:37;17.10;66.60
58993;DHT22;44782;0.000;0.000;2023-10-31T10:53:22;17.10;66.70
58993;DHT22;44782;0.000;0.000;2023-10-31T10:55:45;17.10;66.60
58993;DHT22;44782;0.000;0.000;2023-10-31T10:58:08;17.10;66.80
58993;DHT22;44782;0.000;0.000;2023-10-31T11:00:28;17.10;66.70
58993;DHT22;44782;0.000;0.000;2023-10-31T11:02:44;17.10;66.80
58993;DHT22;44782;0.000;0.000;2023-10-31T11:05:01;17.10;66.70
58993;DHT22;44782;0.000;0.000;2023-10-31T11:07:18;17.10;66.70
58993;DHT22;44782;0.000;0.000;2023-10-31T11:09:34;17.10;66.70
58993;DHT22;44782;0.000;0.000;2023-10-31T11:11:51;17.10;66.70
58993;DHT22;44782;0.000;0.000;2023-10-31T11:14:08;17.10;66.70
58993;DHT22;44782;0.000;0.000;2023-10-31T11:16:29;17.10;66.70
58993;DHT22;44782;0.000;0.000;2023-10-31T11:18:46;17.10;66.70
58993;DHT22;44782;0.000;0.000;2023-10-31T11:21:01;17.10;66.70
58993;DHT22;44782;0.000;0.000;2023-10-31T11:23:17;17.10;66.70
58993;DHT22;44782;0.000;0.000;2023-10-31T11:25:33;17.10;66.70
58993;DHT22;44782;0.000;0.000;2023-10-31T11:27:52;17.10;66.70
58993;DHT22;44782;0.000;0.000;2023-10-31T11:30:21;17.10;66.60
58993;DHT22;44782;0.000;0.000;2023-10-31T11:32:37;17.10;66.50
58993;DHT22;44782;0.000;0.000;2023-10-31T11:34:53;17.10;66.70
58993;DHT22;44782;0.000;0.000;2023-10-31T11:37:31;17.10;66.70
58993;DHT22;44782;0.000;0.000;2023-10-31T11:42:28;17.10;66.40
58993;DHT22;44782;0.000;0.000;2023-10-31T11:44:56;17.10;66.70
58993;DHT22;44782;0.000;0.000;2023-10-31T11:47:15;17.10;66.50
58993;DHT22;44782;0.000;0.000;2023-10-31T11:49:46;17.10;67.30
58993;DHT22;44782;0.000;0.000;2023-10-31T11:52:14;17.10;66.40
58993;DHT22;44782;0.000;0.000;2023-10-31T11:54:30;17.10;66.50
58993;DHT22;44782;0.000;0.000;2023-10-31T11:56:51;17.10;66.60
58993;DHT22;44782;0.000;0.000;2023-10-31T11:59:07;17.10;66.50
58993;DHT22;44782;0.000;0.000;2023-10-31T12:01:23;17.10;66.50
58993;DHT22;44782;0.000;0.000;2023-10-31T12:03:40;17.10;66.50
58993;DHT22;44782;0.000;0.000;2023-10-31T12:05:58;17.10;66.50
58993;DHT22;44782;0.000;0.000;2023-10-31T12:08:15;17.10;66.50
58993;DHT22;44782;0.000;0.000;2023-10-31T12:10:31;17.10;66.50
58993;DHT22;44782;0.000;0.000;2023-10-31T12:12:47;17.10;66.50
58993;DHT22;44782;0.000;0.000;2023-10-31T12:15:09;17.10;66.60
58993;DHT22;44782;0.000;0.000;2023-10-31T12:17:27;17.10;66.50
58993;DHT22;44782;0.000;0.000;2023-10-31T12:19:42;17.10;66.70
58993;DHT22;44782;0.000;0.000;2023-10-31T12:22:00;17.10;66.70
58993;DHT22;44782;0.000;0.000;2023-10-31T12:24:18;17.10;66.70
58993;DHT22;44782;0.000;0.000;2023-10-31T12:26:34;17.10;66.70
58993;DHT22;44782;0.000;0.000;2023-10-31T12:28:50;17.10;66.70
58993;DHT22;44782;0.000;0.000;2023-10-31T12:31:06;17.10;66.70
58993;DHT22;44782;0.000;0.000;2023-10-31T12:33:22;17.10;66.70
58993;DHT22;44782;0.000;0.000;2023-10-31T12:35:41;17.10;66.70
58993;DHT22;44782;0.000;0.000;2023-10-31T12:37:57;17.10;66.70
58993;DHT22;44782;0.000;0.000;2023-10-31T12:40:22;17.10;66.70
58993;DHT22;44782;0.000;0.000;2023-10-31T12:42:38;17.20;66.60
58993;DHT22;44782;0.000;0.000;2023-10-31T12:44:53;17.10;66.60
58993;DHT22;44782;0.000;0.000;2023-10-31T12:47:09;17.10;66.50
58993;DHT22;44782;0.000;0.000;2023-10-31T12:49:25;17.20;66.70
58993;DHT22;44782;0.000;0.000;2023-10-31T12:52:03;17.20;66.70
58993;DHT22;44782;0.000;0.000;2023-10-31T12:54:27;17.20;66.40
58993;DHT22;44782;0.000;0.000;2023-10-31T12:56:43;17.10;66.50
58993;DHT22;44782;0.000;0.000;2023-10-31T12:58:59;17.10;66.60
58993;DHT22;44782;0.000;0.000;2023-10-31T13:01:15;17.10;66.60
58993;DHT22;44782;0.000;0.000;2023-10-31T13:03:32;17.10;66.50
58993;DHT22;44782;0.000;0.000;2023-10-31T13:05:47;17.10;66.50
58993;DHT22;44782;0.000;0.000;2023-10-31T13:08:03;17.10;66.50
58993;DHT22;44782;0.000;0.000;2023-10-31T13:10:20;17.20;66.60
58993;DHT22;44782;0.000;0.000;2023-10-31T13:12:36;17.10;66.50
58993;DHT22;44782;0.000;0.000;2023-10-31T13:14:51;17.10;66.50
58993;DHT22;44782;0.000;0.000;2023-10-31T13:17:07;17.20;66.50
58993;DHT22;44782;0.000;0.000;2023-10-31T13:19:22;17.20;66.50
58993;DHT22;44782;0.000;0.000;2023-10-31T13:21:38;17.20;66.90
58993;DHT22;44782;0.000;0.000;2023-10-31T13:23:54;17.20;66.50
58993;DHT22;44782;0.000;0.000;2023-10-31T13:26:09;17.20;66.50
58993;DHT22;44782;0.000;0.000;2023-10-31T13:28:25;17.20;66.50
58993;DHT22;44782;0.000;0.000;2023-10-31T13:30:41;17.20;66.50
58993;DHT22;44782;0.000;0.000;2023-10-31T13:32:56;17.20;66.50
58993;DHT22;44782;0.000;0.000;2023-10-31T13:35:13;17.20;66.50
58993;DHT22;44782;0.000;0.000;2023-10-31T13:37:30;17.20;66.50
58993;DHT22;44782;0.000;0.000;2023-10-31T13:39:46;17.20;66.50
58993;DHT22;44782;0.000;0.000;2023-10-31T13:42:02;17.20;66.50
58993;DHT22;44782;0.000;0.000;2023-10-31T13:44:18;17.20;66.50
58993;DHT22;44782;0.000;0.000;2023-10-31T13:46:33;17.20;66.50
58993;DHT22;44782;0.000;0.000;2023-10-31T13:48:49;17.20;66.50
58993;DHT22;44782;0.000;0.000;2023-10-31T13:51:04;17.20;66.50
58993;DHT22;44782;0.000;0.000;2023-10-31T13:53:20;17.20;66.50
58993;DHT22;44782;0.000;0.000;2023-10-31T13:55:36;17.10;66.40
58993;DHT22;44782;0.000;0.000;2023-10-31T13:57:52;17.20;66.50
58993;DHT22;44782;0.000;0.000;2023-10-31T14:00:09;17.20;66.40
58993;DHT22;44782;0.000;0.000;2023-10-31T14:02:26;17.20;66.50
58993;DHT22;44782;0.000;0.000;2023-10-31T14:04:43;17.20;66.50
58993;DHT22;44782;0.000;0.000;2023-10-31T14:06:59;17.20;66.60
58993;DHT22;44782;0.000;0.000;2023-10-31T14:09:15;17.20;66.60
58993;DHT22;44782;0.000;0.000;2023-10-31T14:11:31;17.20;66.70
58993;DHT22;44782;0.000;0.000;2023-10-31T14:13:47;17.20;66.70
58993;DHT22;44782;0.000;0.000;2023-10-31T14:16:03;17.20;66.70
58993;DHT22;44782;0.000;0.000;2023-10-31T14:18:18;17.20;66.70
58993;DHT22;44782;0.000;0.000;2023-10-31T14:20:34;17.20;66.70
58993;DHT22;44782;0.000;0.000;2023-10-31T14:22:50;17.20;66.70
58993;DHT22;44782;0.000;0.000;2023-10-31T14:25:06;17.20;66.80
58993;DHT22;44782;0.000;0.000;2023-10-31T14:27:23;17.20;66.80
58993;DHT22;44782;0.000;0.000;2023-10-31T14:29:38;17.20;66.80
58993;DHT22;44782;0.000;0.000;2023-10-31T14:31:54;17.20;66.80
58993;DHT22;44782;0.000;0.000;2023-10-31T14:34:10;17.20;66.90
58993;DHT22;44782;0.000;0.000;2023-10-31T14:36:26;17.20;66.90
58993;DHT22;44782;0.000;0.000;2023-10-31T14:38:41;17.20;66.90
58993;DHT22;44782;0.000;0.000;2023-10-31T14:40:57;17.20;66.90